CDT,Max TemperatureF,Mean TemperatureF,Min TemperatureF,Max Dew PointF,MeanDew PointF,Min DewpointF,Max Humidity, Mean Humidity, Min Humidity, Max Sea Level PressureIn, Mean Sea Level PressureIn, Min Sea Level PressureIn, Max VisibilityMiles, Mean VisibilityMiles, Min VisibilityMiles, Max Wind SpeedMPH, Mean Wind SpeedMPH, Max Gust SpeedMPH,PrecipitationIn, CloudCover, Events, WindDirDegrees
2013-9-1,66,57,48,56,49,43,98,73,43,30.10,30.02,29.87,15,14,8,21,14,28,0.02,4,,3
2013-9-2,73,56,40,49,45,41,100,66,36,30.14,30.08,29.96,15,15,15,16,6,22,0.00,1,,196
2013-9-3,84,68,51,62,51,41,88,61,37,30.12,29.95,29.89,15,15,15,21,13,26,0.00,1,,251
2013-9-4,71,54,36,45,39,34,100,60,27,30.27,30.21,30.13,15,14,12,10,5,,0.00,2,,17
2013-9-5,84,66,47,61,48,41,76,54,22,30.21,30.11,29.94,15,14,12,18,9,24,0.00,2,,188
2013-9-6,91,78,64,71,63,50,96,67,46,29.95,29.88,29.82,15,15,15,14,9,20,0.00,5,,209
2013-9-7,79,68,58,58,52,46,93,58,27,30.17,30.11,29.96,15,15,15,20,12,26,0.00,5,,32
2013-9-8,74,64,53,59,55,50,93,71,57,30.17,30.01,29.86,15,15,12,14,8,,0.00,7,Rain,141
2013-9-9,66,62,58,64,59,55,94,87,82,29.85,29.77,29.73,15,14,10,9,5,,0.04,7,Rain,65
2013-9-10,80,68,57,63,59,57,100,81,45,29.86,29.82,29.78,15,12,0,16,6,23,0.02,6,Fog-Rain-Thunderstorm,261
2013-9-11,77,64,50,59,53,48,100,76,33,30.21,30.02,29.89,15,15,10,20,8,39,0.00,5,Rain,314
2013-9-12,69,58,47,54,49,43,100,73,43,30.32,30.27,30.21,15,15,15,15,6,,0.00,5,,304
2013-9-13,78,62,46,53,48,45,92,62,34,30.23,30.06,29.80,15,15,15,23,10,28,0.00,0,,192
2013-9-14,72,62,50,57,50,43,88,64,46,30.10,29.86,29.75,15,15,12,22,14,29,0.04,3,Rain-Thunderstorm,25
2013-9-15,61,46,32,42,35,28,100,61,27,30.38,30.30,30.14,15,15,15,13,9,21,0.00,0,,37
2013-9-16,71,54,37,46,40,36,93,63,33,30.36,30.23,30.03,15,15,15,24,11,32,0.00,0,,171
2013-9-17,68,60,52,57,51,39,88,68,49,30.03,29.86,29.75,15,15,15,25,20,37,0.02,3,,180
2013-9-18,72,65,58,64,60,57,97,83,67,29.75,29.67,29.59,15,12,6,17,14,24,0.00,6,Rain,162
2013-9-19,62,56,51,64,58,45,100,90,67,29.91,29.70,29.57,15,9,1,18,8,25,0.00,8,Rain,300
2013-9-20,55,50,44,47,41,37,99,72,51,30.02,29.95,29.91,15,15,15,18,11,28,0.00,7,Rain,326
2013-9-21,60,44,29,40,36,30,100,71,42,30.06,30.00,29.91,15,15,15,13,6,,0.00,1,,141
2013-9-22,73,58,42,52,45,37,87,64,41,29.91,29.75,29.58,15,15,15,25,15,33,0.00,4,,137
2013-9-23,80,71,62,57,53,52,77,55,38,29.67,29.58,29.54,15,15,15,29,21,41,0.02,6,,172
2013-9-24,77,66,55,59,47,36,94,60,24,29.87,29.80,29.70,15,15,9,15,10,25,0.04,3,Rain,225
2013-9-25,78,62,46,57,48,39,82,60,41,29.89,29.82,29.75,15,14,9,21,10,29,0.00,5,,156
2013-9-26,70,64,57,62,56,52,88,74,64,29.79,29.69,29.62,15,13,5,24,16,32,0.24,6,Rain-Thunderstorm,162
2013-9-27,59,52,44,52,47,43,95,81,67,29.84,29.79,29.76,15,14,9,13,8,,0.02,6,Rain,271
2013-9-28,51,50,46,51,48,46,100,93,87,29.79,29.70,29.64,15,11,5,14,7,,0.35,8,Rain,289
2013-9-29,70,53,36,56,47,36,100,76,52,29.71,29.62,29.48,15,14,9,26,11,32,0.04,5,,177
2013-9-30,72,64,55,52,45,37,82,55,28,29.47,29.45,29.41,15,14,9,20,12,26,0.08,4,Rain,211